Time;durP1;ratioP1;P1;durP2;ratioP2;P2;SDS_P1;SDS_P2;PMS_P1;PMS_P2;Temp;Humidity;BMP_temperature;BMP_pressure;BME280_temperature;BME280_humidity;BME280_pressure;Samples;Min_cycle;Max_cycle;Signal;HPM_P1;HPM_P2
2022/05/09 00:00:27;;;;;;;4.05;1.83;;;;;;;10.25;71.42;101424.78;6249037;23;20327;-74
2022/05/09 00:02:53;;;;;;;8.18;1.95;;;;;;;10.12;71.30;101403.16;6254217;22;20019;-73
2022/05/09 00:05:25;;;;;;;7.53;2.40;;;;;;;10.18;71.60;101415.88;6248126;23;19999;-73
2022/05/09 00:07:51;;;;;;;7.05;2.30;;;;;;;10.08;71.09;101412.91;6252956;22;20014;-75
2022/05/09 00:10:22;;;;;;;4.38;2.47;;;;;;;10.04;71.73;101400.78;6282609;22;20004;-75
2022/05/09 00:12:52;;;;;;;7.25;2.10;;;;;;;10.04;71.51;101398.06;6252793;22;20006;-74
2022/05/09 00:15:19;;;;;;;4.20;2.35;;;;;;;10.11;71.50;101412.44;6224767;23;20245;-74
2022/05/09 00:17:47;;;;;;;8.80;2.28;;;;;;;9.99;71.44;101398.78;6249598;22;20035;-74
2022/05/09 00:20:16;;;;;;;8.88;2.80;;;;;;;9.90;71.59;101395.56;6248343;23;20047;-74
2022/05/09 00:22:50;;;;;;;6.25;2.50;;;;;;;9.70;71.61;101368.59;6249259;22;20261;-73
2022/05/09 00:25:20;;;;;;;6.60;3.03;;;;;;;9.72;72.57;101382.84;6280756;22;20003;-73
2022/05/09 00:28:25;;;;;;;7.82;3.20;;;;;;;9.87;71.93;101406.13;6250447;22;20334;-74
2022/05/09 00:30:52;;;;;;;9.70;3.03;;;;;;;9.82;72.37;101409.56;6250878;22;20008;-73
2022/05/09 00:33:17;;;;;;;5.82;2.35;;;;;;;9.80;72.29;101411.72;6279494;22;20065;-73
2022/05/09 00:35:44;;;;;;;5.20;2.40;;;;;;;9.67;72.72;101398.31;6282083;22;20415;-74
2022/05/09 00:38:10;;;;;;;6.63;2.65;;;;;;;9.66;72.07;101393.91;6222814;23;20039;-73
2022/05/09 00:40:37;;;;;;;4.82;2.10;;;;;;;9.66;72.45;101400.19;6221302;22;20016;-72
2022/05/09 00:43:34;;;;;;;2.92;1.85;;;;;;;9.63;71.85;101399.84;6281879;22;20543;-74
2022/05/09 00:46:24;;;;;;;2.30;1.77;;;;;;;9.65;71.91;101394.97;6249390;23;20006;-75
2022/05/09 00:48:52;;;;;;;8.82;2.17;;;;;;;9.49;72.68;101378.22;6249618;22;20571;-74
2022/05/09 00:51:24;;;;;;;4.38;2.25;;;;;;;9.52;73.14;101390.53;6224724;23;20016;-72
2022/05/09 00:53:52;;;;;;;4.35;1.73;;;;;;;9.38;72.42;101384.47;6279839;22;20014;-74
2022/05/09 00:56:58;;;;;;;3.22;1.70;;;;;;;9.37;72.81;101394.56;6220427;23;20008;-75
2022/05/09 00:59:24;;;;;;;5.28;1.58;;;;;;;9.14;73.13;101359.03;6251410;23;20190;-74
2022/05/09 01:01:50;;;;;;;4.10;1.60;;;;;;;9.12;72.93;101356.53;6228468;22;20327;-74
2022/05/09 01:04:26;;;;;;;8.00;2.53;;;;;;;9.18;73.64;101371.13;6249248;23;20003;-73
2022/05/09 01:07:41;;;;;;;8.27;2.60;;;;;;;9.15;73.06;101366.97;6254239;22;20031;-74
2022/05/09 01:11:03;;;;;;;;;;;;;;;;;;;;;
2022/05/09 01:13:34;;;;;;;3.42;1.50;;;;;;;8.95;73.39;101360.97;6274332;22;20359;-72
2022/05/09 01:16:02;;;;;;;3.45;1.73;;;;;;;8.87;73.94;101349.34;6246892;23;20066;-72
2022/05/09 01:18:28;;;;;;;3.28;1.65;;;;;;;8.95;74.53;101371.91;6248089;23;20038;-72
2022/05/09 01:20:54;;;;;;;7.18;2.42;;;;;;;8.98;74.24;101374.16;6251841;22;20522;-73
2022/05/09 01:23:20;;;;;;;4.03;2.20;;;;;;;8.95;75.14;101369.16;6280389;22;20019;-74
2022/05/09 01:25:52;;;;;;;6.53;2.67;;;;;;;8.88;74.37;101361.91;6283433;22;19996;-74
2022/05/09 01:28:18;;;;;;;4.72;2.10;;;;;;;8.86;74.98;101369.50;6226697;23;20000;-75
2022/05/09 01:30:51;;;;;;;5.65;2.17;;;;;;;8.82;74.99;101372.91;6248488;22;20000;-74
2022/05/09 01:33:36;;;;;;;4.50;1.88;;;;;;;8.62;74.67;101341.31;6282140;22;20332;-73
2022/05/09 01:36:54;;;;;;;3.28;1.67;;;;;;;8.62;74.93;101345.94;6274183;22;19999;-73
2022/05/09 01:39:22;;;;;;;3.92;1.95;;;;;;;8.53;75.12;101340.78;6203887;23;20020;-75
2022/05/09 01:41:51;;;;;;;3.60;1.80;;;;;;;8.51;74.93;101331.16;6255830;22;20023;-73
2022/05/09 01:44:27;;;;;;;5.80;2.22;;;;;;;8.54;75.46;101349.78;6228716;23;20004;-73
2022/05/09 01:49:39;;;;;;;3.63;1.70;;;;;;;8.46;74.79;101331.88;6284443;22;20023;-74
2022/05/09 01:52:18;;;;;;;6.10;1.92;;;;;;;8.39;74.92;101325.63;6282724;22;20015;-75
2022/05/09 01:54:54;;;;;;;4.45;1.70;;;;;;;8.39;75.70;101339.25;6255865;22;20538;-76
2022/05/09 01:57:21;;;;;;;5.72;1.88;;;;;;;8.43;75.64;101348.66;6254408;23;20011;-74
2022/05/09 01:59:47;;;;;;;4.57;1.65;;;;;;;8.34;74.87;101328.22;6232111;22;20438;-75
2022/05/09 02:02:17;;;;;;;5.22;1.83;;;;;;;8.37;74.72;101333.22;6253641;23;20004;-76
2022/05/09 02:04:46;;;;;;;3.63;1.80;;;;;;;8.23;74.78;101307.19;6255229;22;20000;-75
2022/05/09 02:07:24;;;;;;;3.03;1.45;;;;;;;8.13;75.41;101303.13;6232313;23;20012;-74
2022/05/09 02:09:50;;;;;;;6.72;2.30;;;;;;;8.25;75.53;101324.13;6256261;22;20012;-75
2022/05/09 02:12:17;;;;;;;2.40;1.58;;;;;;;8.11;75.02;101312.56;6233170;23;20004;-74
2022/05/09 02:15:12;;;;;;;3.53;1.70;;;;;;;8.17;74.58;101326.09;6231873;22;20004;-74
2022/05/09 02:17:47;;;;;;;2.63;1.48;;;;;;;8.10;74.66;101319.91;6255123;22;20016;-73
2022/05/09 02:20:24;;;;;;;3.80;1.60;;;;;;;8.03;74.88;101306.38;6281318;22;20085;-74
2022/05/09 02:22:50;;;;;;;3.38;2.00;;;;;;;8.03;74.64;101316.41;6258737;22;20016;-75
2022/05/09 02:25:29;;;;;;;2.03;1.52;;;;;;;7.93;75.60;101302.50;6226265;23;20004;-75
2022/05/09 02:28:15;;;;;;;2.42;1.25;;;;;;;7.94;74.55;101304.16;6255835;22;20007;-74
2022/05/09 02:30:41;;;;;;;4.97;1.67;;;;;;;8.00;74.36;101320.44;6253084;22;20016;-74
2022/05/09 02:33:25;;;;;;;4.13;1.63;;;;;;;7.90;75.25;101305.69;6285025;22;20010;-74
2022/05/09 02:35:54;;;;;;;3.55;2.00;;;;;;;7.92;74.82;101311.75;6209059;22;20008;-74
2022/05/09 02:38:28;;;;;;;3.35;1.75;;;;;;;7.74;75.09;101294.34;6254494;23;20406;-75
2022/05/09 02:40:54;;;;;;;2.35;1.60;;;;;;;7.85;74.28;101309.91;6283816;22;20449;-75
2022/05/09 02:43:20;;;;;;;5.68;2.00;;;;;;;7.76;74.88;101305.81;6232947;23;20012;-74
2022/05/09 02:45:46;;;;;;;3.05;1.50;;;;;;;7.83;74.47;101312.03;6230533;22;19999;-74
2022/05/09 02:48:12;;;;;;;2.72;1.90;;;;;;;7.70;74.67;101290.41;6283043;22;20043;-74
2022/05/09 02:50:38;;;;;;;2.45;1.45;;;;;;;7.62;73.88;101291.53;6251882;22;20724;-74
2022/05/09 02:53:04;;;;;;;3.35;1.45;;;;;;;7.73;73.50;101311.72;6228726;23;20094;-74
2022/05/09 02:55:31;;;;;;;3.28;1.63;;;;;;;7.68;74.15;101304.25;6252130;23;20319;-72
2022/05/09 02:57:58;;;;;;;3.25;1.38;;;;;;;7.65;73.63;101298.41;6229060;22;20008;-74
2022/05/09 03:00:26;;;;;;;3.97;1.55;;;;;;;7.71;73.82;101302.97;6250930;23;20043;-76
2022/05/09 03:05:39;;;;;;;2.22;1.48;;;;;;;7.60;73.20;101290.09;6283489;22;20014;-75
2022/05/09 03:08:06;;;;;;;2.58;1.40;;;;;;;7.62;73.30;101302.44;6250810;23;20012;-74
2022/05/09 03:10:31;;;;;;;2.75;1.63;;;;;;;7.66;73.69;101310.97;6232152;23;20011;-73
2022/05/09 03:12:59;;;;;;;5.38;2.15;;;;;;;7.53;73.20;101286.59;6264230;22;20288;-74
2022/05/09 03:15:29;;;;;;;1.77;1.13;;;;;;;7.63;72.38;101300.53;6257056;23;20030;-74
2022/05/09 03:17:55;;;;;;;5.63;2.03;;;;;;;7.63;73.40;101295.09;6257665;22;20004;-74
2022/05/09 03:20:22;;;;;;;2.72;1.55;;;;;;;7.71;72.08;101302.97;6251731;23;20039;-73
2022/05/09 03:22:48;;;;;;;1.63;1.20;;;;;;;7.66;72.68;101286.47;6231750;22;20012;-74
2022/05/09 03:25:36;;;;;;;2.65;1.60;;;;;;;7.72;72.16;101299.16;6285731;22;20488;-74
2022/05/09 03:28:12;;;;;;;1.58;1.25;;;;;;;7.61;71.77;101278.16;6253409;23;20452;-76
2022/05/09 03:30:38;;;;;;;2.40;1.20;;;;;;;7.50;72.49;101266.94;6252513;22;20326;-74
2022/05/09 03:33:15;;;;;;;1.25;1.08;;;;;;;7.53;72.07;101273.00;6227071;23;20004;-74
2022/05/09 03:35:52;;;;;;;1.73;1.13;;;;;;;7.37;72.08;101261.63;6256450;22;20007;-75
2022/05/09 03:38:32;;;;;;;3.95;1.10;;;;;;;7.32;72.99;101264.19;6229069;23;20024;-74
2022/05/09 03:41:23;;;;;;;1.42;1.00;;;;;;;7.42;72.34;101278.13;6286645;22;20034;-74
2022/05/09 03:43:54;;;;;;;2.92;1.13;;;;;;;7.46;72.01;101284.78;6237779;22;20008;-75
2022/05/09 03:46:22;;;;;;;3.38;1.40;;;;;;;7.25;72.27;101249.81;6254520;23;19996;-75
2022/05/09 03:49:58;;;;;;;;;;;;;;;;;;;;;
2022/05/09 03:52:25;;;;;;;3.72;1.30;;;;;;;7.09;72.21;101230.28;6215485;22;20552;-74
2022/05/09 03:54:55;;;;;;;2.72;1.30;;;;;;;7.29;72.34;101268.19;6258591;22;20303;-74
2022/05/09 03:57:31;;;;;;;1.45;1.10;;;;;;;7.31;72.70;101271.50;6252110;23;20068;-73
2022/05/09 04:00:25;;;;;;;;;;;;;;;;;;;;;
2022/05/09 04:03:00;;;;;;;1.35;1.13;;;;;;;7.23;72.57;101254.63;6284191;22;20027;-75
2022/05/09 04:05:30;;;;;;;3.10;1.48;;;;;;;7.20;nan;101252.34;6225735;23;20063;-75
2022/05/09 04:07:58;;;;;;;3.55;1.33;;;;;;;7.13;72.46;101249.72;6261736;22;20011;-73
2022/05/09 04:10:27;;;;;;;0.80;0.80;;;;;;;7.17;72.29;101253.66;6286242;22;20068;-74
2022/05/09 04:12:53;;;;;;;0.93;0.90;;;;;;;7.25;72.17;101261.53;6287261;22;20047;-75
2022/05/09 04:18:04;;;;;;;2.15;1.02;;;;;;;7.14;72.33;101244.06;6263361;22;20026;-72
2022/05/09 04:20:31;;;;;;;0.95;0.88;;;;;;;7.14;71.79;101252.22;6287509;22;20430;-74
2022/05/09 04:22:58;;;;;;;3.38;1.10;;;;;;;7.12;72.23;101251.59;6256807;22;20000;-74
2022/05/09 04:25:34;;;;;;;1.63;0.95;;;;;;;7.19;72.21;101256.16;6249411;23;20089;-74
2022/05/09 04:28:02;;;;;;;2.22;1.13;;;;;;;7.21;72.25;101254.03;6249761;23;20087;-75
2022/05/09 04:34:01;;;;;;;2.10;0.93;;;;;;;7.09;71.08;101222.13;6282460;22;20073;-74
2022/05/09 04:36:29;;;;;;;3.17;1.23;;;;;;;7.09;70.96;101218.56;6249419;23;20011;-74
2022/05/09 04:38:58;;;;;;;2.03;1.30;;;;;;;7.15;71.30;101218.53;6280297;22;20538;-74
2022/05/09 04:41:24;;;;;;;2.03;1.15;;;;;;;7.28;71.61;101227.59;6222708;23;20044;-74
2022/05/09 04:43:50;;;;;;;4.10;1.27;;;;;;;7.29;71.06;101230.09;6277207;22;20004;-74
2022/05/09 04:46:19;;;;;;;3.63;1.10;;;;;;;7.15;70.72;101191.31;6247463;23;20011;-75
2022/05/09 04:48:46;;;;;;;1.52;1.10;;;;;;;7.34;71.59;101211.22;6248439;22;20016;-74
2022/05/09 04:51:11;;;;;;;1.40;1.17;;;;;;;7.27;70.84;101187.84;6246643;23;20751;-74
2022/05/09 04:53:38;;;;;;;1.38;0.95;;;;;;;7.44;70.99;101205.22;6246725;22;20038;-74
2022/05/09 04:56:44;;;;;;;1.35;0.80;;;;;;;7.55;70.18;101210.97;6198505;23;20000;-74
2022/05/09 04:59:13;;;;;;;2.90;1.10;;;;;;;7.44;69.69;101172.56;6248026;23;20060;-72
2022/05/09 05:01:39;;;;;;;2.28;0.90;;;;;;;7.56;69.84;101166.38;6248708;22;20004;-73
2022/05/09 05:04:09;;;;;;;1.10;1.00;;;;;;;7.70;69.91;101173.34;6246700;23;20015;-72
2022/05/09 05:06:34;;;;;;;3.30;1.10;;;;;;;7.86;69.62;101193.66;6221391;22;20411;-73
2022/05/09 05:08:59;;;;;;;3.22;1.20;;;;;;;7.99;69.26;101196.22;6277138;22;20004;-72
2022/05/09 05:11:25;;;;;;;2.35;1.17;;;;;;;8.07;68.70;101203.22;6247154;23;20012;-74
2022/05/09 05:13:52;;;;;;;2.15;1.20;;;;;;;8.17;69.25;101203.50;6252674;22;20011;-74
2022/05/09 05:16:59;;;;;;;2.42;1.20;;;;;;;8.17;69.08;101184.44;6248988;23;20023;-76
2022/05/09 05:19:06;;;;;;;1.83;1.20;;;;;;;8.31;69.05;101203.31;6235255;22;20178;-76
2022/05/09 05:25:31;;;;;;;4.63;0.98;;;;;;;8.29;68.19;101167.28;6250350;23;20018;-77
2022/05/09 05:28:23;;;;;;;4.55;1.17;;;;;;;8.48;67.60;101192.63;6231273;23;20012;-73
2022/05/09 05:30:53;;;;;;;2.63;1.10;;;;;;;8.69;67.51;101210.34;6225663;23;20004;-75
2022/05/09 05:33:30;;;;;;;;;;;;;;;;;;;;;
2022/05/09 05:35:58;;;;;;;5.28;1.73;;;;;;;8.65;66.94;101176.41;6248925;23;20028;-74
2022/05/09 05:38:27;;;;;;;4.10;1.40;;;;;;;8.75;66.26;101187.59;6246471;23;20461;-74
2022/05/09 05:40:57;;;;;;;2.60;1.45;;;;;;;8.80;66.47;101184.13;6222050;23;20031;-74
2022/05/09 05:43:22;;;;;;;2.85;1.13;;;;;;;8.91;65.50;101188.78;6247453;23;20425;-75
2022/05/09 05:45:57;;;;;;;2.25;1.40;;;;;;;8.96;66.10;101191.63;6222104;23;20011;-74
2022/05/09 05:48:24;;;;;;;;;;;;;;;9.11;65.44;101202.06;6247964;22;20020;-78
2022/05/09 05:51:21;;;;;;;2.42;1.27;;;;;;;9.21;65.01;101202.31;6226278;23;19958;-78
2022/05/09 05:53:41;;;;;;;2.70;1.27;;;;;;;9.13;64.91;101175.38;6244980;22;20019;-74
2022/05/09 05:56:37;;;;;;;2.60;1.27;;;;;;;9.30;64.88;101180.09;6249442;23;20000;-77
2022/05/09 05:59:05;;;;;;;1.63;1.05;;;;;;;9.55;63.84;101201.66;6219366;23;20016;-72
2022/05/09 06:01:36;;;;;;;2.08;1.13;;;;;;;9.46;63.77;101156.69;6245667;23;20456;-75
2022/05/09 06:04:27;;;;;;;3.15;1.30;;;;;;;9.60;63.34;101161.66;6253393;22;20004;-77
2022/05/09 06:10:46;;;;;;;4.28;1.50;;;;;;;10.22;62.18;101200.28;6137713;23;20021;-80
2022/05/09 06:13:21;;;;;;;;;;;;;;;;;;;;;
2022/05/09 06:16:27;;;;;;;2.05;1.38;;;;;;;10.10;61.39;101159.34;6256254;23;20003;-80
2022/05/09 06:19:09;;;;;;;;;;;;;;;;;;;;;
2022/05/09 06:25:40;;;;;;;3.38;1.48;;;;;;;10.37;60.71;101186.09;6219708;22;20062;-79
2022/05/09 06:29:03;;;;;;;;;;;;;;;;;;;;;
2022/05/09 06:31:39;;;;;;;3.00;1.45;;;;;;;10.58;60.24;101177.16;6256474;23;20035;-79
2022/05/09 06:34:25;;;;;;;5.75;1.60;;;;;;;10.77;59.91;101171.44;6254078;23;20012;-79
2022/05/09 06:37:15;;;;;;;;;;;;;;;;;;;;;
2022/05/09 06:39:47;;;;;;;5.55;1.25;;;;;;;10.94;59.89;101161.34;6252591;23;20036;-79
2022/05/09 06:43:03;;;;;;;3.72;1.48;;;;;;;11.24;59.34;101201.16;6225807;23;20366;-78
2022/05/09 06:45:55;;;;;;;;;;;;;;;;;;;;;
2022/05/09 06:48:39;;;;;;;7.22;2.20;;;;;;;10.96;59.61;101156.41;6101123;23;20056;-80
2022/05/09 06:51:32;;;;;;;;;;;;;;;;;;;;;
2022/05/09 06:54:22;;;;;;;5.32;1.70;;;;;;;11.43;59.53;101189.94;6109514;23;20029;-78
2022/05/09 07:04:27;;;;;;;5.35;1.55;;;;;;;11.67;59.00;101174.09;6048167;23;20014;-77
2022/05/09 07:07:05;;;;;;;2.72;1.42;;;;;;;11.93;58.69;101191.72;6195490;23;19996;-79
2022/05/09 07:09:36;;;;;;;5.82;2.03;;;;;;;11.81;58.39;101144.38;6196785;23;20039;-79
2022/05/09 07:12:15;;;;;;;7.60;1.90;;;;;;;12.02;59.01;101162.75;6193638;23;20077;-77
2022/05/09 07:15:01;;;;;;;5.00;2.20;;;;;;;12.22;58.10;101166.78;6196039;23;20035;-79
2022/05/09 07:17:26;;;;;;;6.60;1.92;;;;;;;12.38;58.37;101176.84;6185995;23;20036;-77
2022/05/09 07:19:57;;;;;;;7.60;2.13;;;;;;;12.33;58.25;101145.78;6223159;23;20602;-80
2022/05/09 07:22:26;;;;;;;7.15;1.80;;;;;;;12.50;58.25;101168.44;6193449;23;20004;-78
2022/05/09 07:24:57;;;;;;;5.68;2.35;;;;;;;12.48;58.70;101143.16;6194808;23;19997;-76
2022/05/09 07:27:36;;;;;;;6.53;1.85;;;;;;;12.69;58.66;101155.16;6195385;23;20008;-78
2022/05/09 07:30:28;;;;;;;8.05;2.10;;;;;;;13.11;57.93;101169.97;6195731;23;20000;-79
2022/05/09 07:33:03;;;;;;;5.53;1.90;;;;;;;13.37;56.60;101159.19;6183159;23;20088;-77
2022/05/09 07:35:29;;;;;;;4.18;1.50;;;;;;;13.51;56.84;101154.03;6196015;23;19997;-78
2022/05/09 07:41:24;;;;;;;11.27;2.13;;;;;;;13.77;56.24;101168.72;6212316;23;20077;-79
2022/05/09 07:48:05;;;;;;;3.58;1.85;;;;;;;14.84;54.85;101172.75;6156759;23;20020;-81
2022/05/09 07:51:08;;;;;;;5.55;1.60;;;;;;;15.40;54.07;101179.25;6110864;23;20018;-79
2022/05/09 07:54:05;;;;;;;4.53;1.88;;;;;;;15.65;52.28;101146.09;6246960;23;20015;-78
2022/05/09 07:56:31;;;;;;;7.63;1.75;;;;;;;15.79;52.09;101165.63;6244865;23;19999;-79
2022/05/09 07:59:05;;;;;;;;;;;;;;;15.83;52.28;101169.47;6224410;23;20034;-77
2022/05/09 08:01:48;;;;;;;4.57;1.65;;;;;;;15.98;52.91;101153.94;6198267;23;19918;-78
2022/05/09 08:04:19;;;;;;;6.50;1.83;;;;;;;16.37;51.87;101155.91;6251152;23;20004;-81
2022/05/09 08:06:45;;;;;;;6.60;1.95;;;;;;;16.39;51.41;101142.63;6222916;23;20004;-78
2022/05/09 08:09:26;;;;;;;9.82;2.92;;;;;;;16.19;51.66;101122.34;6224655;23;20026;-79
2022/05/09 08:11:55;;;;;;;8.35;2.28;;;;;;;16.56;52.01;101151.31;6223239;23;20245;-78
2022/05/09 08:14:21;;;;;;;3.45;1.88;;;;;;;16.52;52.31;101135.63;6225394;23;20012;-78
2022/05/09 08:16:50;;;;;;;7.13;1.80;;;;;;;16.78;51.50;101150.03;6224324;23;20081;-79
2022/05/09 08:19:41;;;;;;;5.18;2.08;;;;;;;16.78;51.42;101127.09;6225074;23;20087;-80
2022/05/09 08:22:28;;;;;;;5.88;2.08;;;;;;;16.78;51.08;101116.06;6186086;23;20004;-80
2022/05/09 08:25:24;;;;;;;;;;;;;;;;;;;;;
2022/05/09 08:27:57;;;;;;;2.58;1.60;;;;;;;17.27;51.58;101151.78;6257546;23;20031;-82
2022/05/09 08:33:31;;;;;;;9.07;2.47;;;;;;;17.98;50.12;101147.63;6169533;23;20023;-79
2022/05/09 08:36:09;;;;;;;;;;;;;;;;;;;;;
2022/05/09 08:39:23;;;;;;;10.95;2.80;;;;;;;18.13;50.00;101147.38;6257240;23;20038;-79
2022/05/09 08:42:13;;;;;;;;;;;;;;;;;;;;;
2022/05/09 08:45:16;;;;;;;10.52;2.08;;;;;;;18.67;49.17;101154.28;6254276;23;20040;-81
2022/05/09 08:48:25;;;;;;;12.65;2.63;;;;;;;18.54;49.36;101130.09;6226435;23;20010;-82
2022/05/09 11:31:22;;;;;;;9.82;4.07;;;;;;;29.08;30.35;101042.50;6190016;22;20087;-73
2022/05/09 11:34:01;;;;;;;11.05;4.40;;;;;;;28.85;30.74;101033.31;6279234;22;20012;-73
2022/05/09 11:37:10;;;;;;;12.32;4.85;;;;;;;28.08;31.05;101035.09;6254047;22;20012;-73
2022/05/09 11:39:44;;;;;;;13.13;3.95;;;;;;;27.58;31.36;101030.03;6280522;22;20010;-77
2022/05/09 11:45:24;;;;;;;8.75;3.40;;;;;;;30.33;27.66;101040.94;6284506;22;20038;-79
2022/05/09 11:48:33;;;;;;;;;;;;;;;;;;;;;
2022/05/09 11:51:25;;;;;;;8.55;2.95;;;;;;;31.04;28.10;101034.38;6281891;22;20046;-78
2022/05/09 11:54:00;;;;;;;14.85;5.25;;;;;;;31.27;26.61;101022.84;6255388;22;20011;-79
2022/05/09 11:56:29;;;;;;;10.73;3.80;;;;;;;31.48;27.16;101025.78;6251172;22;20000;-79
2022/05/09 11:58:59;;;;;;;9.63;4.65;;;;;;;31.26;26.48;101024.03;6283215;22;20012;-79
2022/05/09 12:04:50;;;;;;;8.63;3.53;;;;;;;31.07;27.37;101014.63;6267086;22;19992;-79
2022/05/09 12:07:22;;;;;;;7.57;3.35;;;;;;;32.49;25.76;101031.81;6281207;22;20014;-78
2022/05/09 12:10:15;;;;;;;6.97;3.35;;;;;;;32.50;25.14;101032.59;6253411;22;20004;-78
2022/05/09 12:12:49;;;;;;;8.48;4.38;;;;;;;32.74;24.49;101030.22;6255571;22;20027;-79
2022/05/09 12:15:19;;;;;;;13.13;4.60;;;;;;;32.60;25.13;101016.84;6279857;22;20066;-76
2022/05/09 12:18:07;;;;;;;9.43;3.13;;;;;;;33.57;24.74;101003.38;6254474;22;20012;-74
2022/05/09 12:20:37;;;;;;;8.40;3.95;;;;;;;34.66;22.45;101025.47;6253839;22;20026;-74
2022/05/09 12:23:09;;;;;;;5.07;2.55;;;;;;;35.00;22.28;101010.56;6253036;22;20007;-74
2022/05/09 12:25:42;;;;;;;10.57;3.03;;;;;;;36.05;20.70;101004.47;6252294;22;20482;-75
2022/05/09 12:28:29;;;;;;;9.98;4.05;;;;;;;36.32;19.86;101008.13;6254569;22;20023;-75
2022/05/09 12:31:00;;;;;;;7.35;3.55;;;;;;;36.27;20.38;100994.34;6253246;22;20011;-75
2022/05/09 16:28:51;;;;;;;7.00;4.38;;;;;;;23.12;40.97;100766.75;6192183;23;20020;-76
2022/05/09 16:31:23;;;;;;;10.02;4.53;;;;;;;23.48;40.31;100742.91;6164967;23;20587;-76
2022/05/09 16:34:24;;;;;;;;;;;;;;;;;;;;;
2022/05/09 16:37:13;;;;;;;;;;;;;;;;;;;;;
2022/05/09 16:39:47;;;;;;;8.45;4.40;;;;;;;24.27;39.16;100743.88;6344878;22;20049;-78
2022/05/09 16:42:38;;;;;;;6.88;4.95;;;;;;;23.44;40.07;100757.91;6319559;22;20002;-76
2022/05/09 16:45:35;;;;;;;;;;;;;;;;;;;;;
2022/05/09 16:48:19;;;;;;;;;;;;;;;;;;;;;
2022/05/09 16:50:45;;;;;;;;;;;;;;;21.91;44.12;100764.47;6318482;22;20038;-77
2022/05/09 16:53:15;;;;;;;7.18;4.47;;;;;;;21.77;44.82;100752.72;6316107;22;19906;-74
2022/05/09 16:56:26;;;;;;;8.45;5.03;;;;;;;21.42;44.73;100697.19;6314947;22;19999;-77
2022/05/09 16:58:54;;;;;;;6.70;5.70;;;;;;;21.54;44.68;100704.91;6315972;22;19986;-76
2022/05/09 17:01:22;;;;;;;9.43;6.32;;;;;;;21.52;45.17;100707.19;6288133;22;20002;-76
2022/05/09 17:04:05;;;;;;;;;;;;;;;;;;;;;
2022/05/09 17:06:53;;;;;;;10.45;6.13;;;;;;;21.10;47.03;100728.06;6344637;22;20022;-76
2022/05/09 17:16:20;;;;;;;12.55;6.63;;;;;;;20.17;49.11;100724.59;6339109;22;20051;-75
2022/05/09 17:18:47;;;;;;;12.52;5.85;;;;;;;19.99;49.81;100718.19;6316033;22;20435;-75
2022/05/09 17:21:13;;;;;;;10.57;6.00;;;;;;;19.96;50.27;100718.84;6288192;22;20007;-75
2022/05/09 17:23:41;;;;;;;9.32;5.82;;;;;;;19.83;50.62;100711.44;6342917;22;20064;-75
2022/05/09 17:26:32;;;;;;;;;;;;;;;;;;;;;
2022/05/09 17:29:05;;;;;;;15.40;6.43;;;;;;;19.52;51.86;100706.72;6338147;22;20032;-76
2022/05/09 17:31:34;;;;;;;14.57;7.20;;;;;;;19.51;51.49;100721.75;6315036;22;20044;-77
2022/05/09 17:34:05;;;;;;;11.75;6.82;;;;;;;19.28;52.50;100716.22;6343491;22;20120;-76
2022/05/09 17:39:17;;;;;;;12.00;6.88;;;;;;;18.53;54.05;100692.88;6319576;22;20009;-75
2022/05/09 17:41:43;;;;;;;12.40;7.20;;;;;;;18.51;54.45;100704.25;6318531;22;20517;-78
2022/05/09 17:44:11;;;;;;;13.18;7.38;;;;;;;18.54;54.33;100717.47;6316100;22;20021;-76
2022/05/09 17:46:44;;;;;;;15.35;8.35;;;;;;;18.42;54.89;100720.78;6344194;22;20002;-75
2022/05/09 17:49:14;;;;;;;13.68;8.73;;;;;;;18.38;55.23;100719.78;6343442;22;20075;-76
2022/05/09 17:51:40;;;;;;;12.77;7.97;;;;;;;18.25;56.11;100713.16;6343070;22;19996;-75
2022/05/09 17:54:05;;;;;;;13.77;8.82;;;;;;;18.10;56.14;100702.41;6315441;22;20080;-76
2022/05/09 17:56:35;;;;;;;11.82;7.47;;;;;;;18.16;56.36;100723.31;6343804;22;19987;-75
2022/05/09 17:59:04;;;;;;;13.43;8.55;;;;;;;18.07;56.85;100705.81;6290206;22;20037;-75
2022/05/09 18:02:08;;;;;;;;;;;;;;;;;;;;;
2022/05/09 18:04:44;;;;;;;11.77;7.72;;;;;;;17.98;57.21;100702.16;6340993;22;20034;-76
2022/05/09 18:07:47;;;;;;;14.27;8.15;;;;;;;17.91;58.15;100700.59;6342901;22;19999;-76
2022/05/09 18:10:14;;;;;;;11.23;7.45;;;;;;;17.86;58.35;100703.44;6310566;22;20006;-75
2022/05/09 18:12:46;;;;;;;14.13;8.35;;;;;;;17.76;58.53;100681.53;6264762;22;20007;-76
2022/05/09 18:15:19;;;;;;;12.52;6.95;;;;;;;17.83;58.06;100687.47;6313915;22;20014;-74
2022/05/09 18:18:06;;;;;;;14.95;7.93;;;;;;;17.96;58.03;100692.19;6342782;22;20010;-73
2022/05/09 18:20:34;;;;;;;11.90;7.30;;;;;;;17.95;57.99;100692.50;6310579;22;20078;-73
2022/05/09 18:23:07;;;;;;;13.32;7.88;;;;;;;17.87;58.51;100688.50;6314259;22;20014;-75
2022/05/09 18:25:49;;;;;;;13.75;7.60;;;;;;;17.69;58.16;100670.06;6342255;22;20003;-76
2022/05/09 18:28:17;;;;;;;13.68;7.65;;;;;;;17.62;58.75;100665.78;6344220;22;20131;-73
2022/05/09 18:30:47;;;;;;;12.32;7.07;;;;;;;17.61;58.97;100663.31;6315437;22;20091;-74
2022/05/09 18:33:21;;;;;;;15.05;8.00;;;;;;;17.73;58.66;100693.22;6317338;22;20007;-74
2022/05/09 18:35:59;;;;;;;15.25;7.35;;;;;;;17.75;58.94;100699.25;6317265;22;20438;-76
2022/05/09 18:39:15;;;;;;;;;;;;;;;;;;;;;
2022/05/09 18:41:59;;;;;;;11.43;6.20;;;;;;;17.57;59.37;100674.16;6300048;22;20066;-78
2022/05/09 18:44:45;;;;;;;14.85;8.35;;;;;;;17.56;60.46;100678.03;6316826;22;20085;-76
2022/05/09 18:47:24;;;;;;;19.45;8.43;;;;;;;17.42;61.01;100685.50;6316675;22;19990;-77
2022/05/09 18:52:54;;;;;;;14.75;8.32;;;;;;;17.15;62.53;100683.53;6343932;22;20082;-77
2022/05/09 18:55:49;;;;;;;13.13;7.97;;;;;;;16.96;62.94;100667.03;6322396;22;20019;-81
2022/05/09 18:58:44;;;;;;;;;;;;;;;;;;;;;
2022/05/09 19:01:33;;;;;;;16.45;9.80;;;;;;;16.70;64.08;100667.41;6222308;23;20031;-76
2022/05/09 19:04:09;;;;;;;22.85;10.43;;;;;;;16.34;64.86;100632.94;6195904;22;20016;-74
2022/05/09 19:06:48;;;;;;;;;;;;;;;;;;;;;
2022/05/09 19:09:34;;;;;;;16.08;8.57;;;;;;;16.14;66.04;100645.09;6214711;23;20032;-71
2022/05/09 19:12:01;;;;;;;15.48;9.70;;;;;;;15.93;66.60;100632.72;6215971;23;20004;-72
2022/05/09 19:14:49;;;;;;;18.48;10.57;;;;;;;16.01;67.39;100654.13;6187854;23;20042;-75
2022/05/09 19:17:15;;;;;;;16.50;9.88;;;;;;;15.86;68.25;100649.63;6193672;22;20349;-71
2022/05/09 19:20:26;;;;;;;18.60;10.85;;;;;;;15.66;68.07;100634.13;6262518;22;20018;-73
2022/05/09 21:58:37;;;;;;;;;;;;;;;;;;;;;
2022/05/09 22:01:26;;;;;;;33.35;19.35;;;;;;;14.03;77.10;100608.69;6345238;22;20027;-76
2022/05/09 22:04:11;;;;;;;;;;;;;;;;;;;;;
2022/05/09 22:06:58;;;;;;;;;;;;;;;;;;;;;
2022/05/09 22:09:45;;;;;;;34.25;19.63;;;;;;;14.07;76.71;100606.16;6347552;22;20027;-78
2022/05/09 22:12:31;;;;;;;;;;;;;;;;;;;;;
2022/05/09 22:15:21;;;;;;;41.47;22.17;;;;;;;14.06;76.72;100616.34;6297004;22;20030;-76
2022/05/09 22:17:55;;;;;;;35.83;21.25;;;;;;;13.93;77.09;100601.31;6318737;22;20007;-76
2022/05/09 22:20:21;;;;;;;47.65;22.10;;;;;;;13.86;77.75;100599.97;6292356;22;20011;-78
2022/05/09 22:22:47;;;;;;;36.97;21.02;;;;;;;13.79;77.64;100587.34;6317551;22;20006;-78
2022/05/09 22:25:14;;;;;;;39.22;21.05;;;;;;;13.95;77.56;100614.75;6294900;22;20026;-76
2022/05/09 22:27:46;;;;;;;33.67;20.30;;;;;;;13.78;77.78;100584.88;6319095;22;20006;-76
2022/05/09 22:33:22;;;;;;;34.70;20.42;;;;;;;13.95;77.76;100599.06;6311423;22;20007;-76
2022/05/09 22:35:49;;;;;;;35.60;19.38;;;;;;;13.90;77.48;100590.03;6291222;22;20103;-74
2022/05/09 22:38:30;;;;;;;40.83;21.98;;;;;;;13.94;77.64;100597.47;6347573;22;20078;-75
2022/05/09 22:41:27;;;;;;;48.35;23.38;;;;;;;13.72;78.05;100562.09;6317877;22;20091;-73
2022/05/09 22:43:56;;;;;;;39.33;22.42;;;;;;;13.76;77.90;100576.94;6307954;22;20010;-75
2022/05/09 22:46:24;;;;;;;45.95;23.67;;;;;;;13.79;78.60;100584.59;6345581;22;20306;-74
2022/05/09 22:49:00;;;;;;;39.92;21.92;;;;;;;13.61;78.75;100553.09;6317075;22;20003;-77
2022/05/09 22:51:47;;;;;;;48.40;25.05;;;;;;;13.67;78.67;100564.91;6294492;22;20006;-75
2022/05/09 22:54:15;;;;;;;40.53;22.38;;;;;;;13.77;79.20;100578.56;6292649;22;19999;-74
2022/05/09 22:57:04;;;;;;;;;;;;;;;;;;;;;
2022/05/09 22:59:43;;;;;;;36.08;20.77;;;;;;;13.58;78.84;100544.59;6345190;22;20049;-74
2022/05/09 23:02:16;;;;;;;35.83;22.05;;;;;;;13.56;79.12;100530.34;6317575;22;20017;-74
2022/05/09 23:05:09;;;;;;;44.25;23.98;;;;;;;13.53;79.15;100530.91;6346392;22;19987;-74